Terminal Aerodrome Forecast
Issued by NWS

Current Version | Previous Version | Text Only | Print | Product List | Glossary Off
Versions: 1 2 3 4 5 6 7 8 9 10 11 12 13 14 15 16 17 18 19 20 21 22 23 24 25 26 27 28

000
FTUS41 KILN 140530
TAFLUK
TAF
KLUK 140530Z 1406/1506 00000KT P6SM OVC040
     FM140900 00000KT 3SM BR VCSH OVC009
     FM141400 35003KT 2SM -RA BR OVC009
     FM141900 33003KT P6SM VCSH OVC015
     FM150000 36003KT P6SM OVC012=

USA.gov is the U.S. government's official web portal to all federal, state and local government web resources and services.